Grand Canyon, AZ

2:23 PM MST on February 19, 2018 (GMT -0700)
Grand Canyon Village | | Change Station
Active Advisory: Wind Advisory

Elev 6991 ft 36.05 °N, 112.12 °W | Updated 27 seconds ago

Overcast
Overcast
23.4 °F
Feels Like 23 °F
N
2.0
Wind Variable Wind from SSW
Gusts 13.0 mph

Today
High -- | Low -- °F
--% Chance of Precip.
Yesterday
High -- | Low -- °F
Precip. -- in
Pressure 29.49 in
Visibility 4.0 miles
Clouds Mostly Cloudy 3900 ft
Overcast 5000 ft
Windchill 23 °F
Dew Point 6 °F
Humidity 47%
Rainfall 0.00 in
Snow Depth Not available.
7:11 AM 6:14 PM
Waxing Crescent, 16% visible
METAR KGCN 192054Z 25021G33KT 4SM UP BKN039 OVC050 M03/M12 A2953 RMK AO2 PK WND 24033/2054 UPB54 SLP984 P0000 60010 T10331122 58002
Pressure 29.49 in
Visibility 4.0 miles
Clouds Mostly Cloudy 3900 ft
Overcast 5000 ft
Windchill 23 °F
Dew Point 6 °F
Humidity 47%
Rainfall 0.00 in
Snow Depth Not available.
7:11 AM 6:14 PM
Waxing Crescent, 16% visible
METAR KGCN 192054Z 25021G33KT 4SM UP BKN039 OVC050 M03/M12 A2953 RMK AO2 PK WND 24033/2054 UPB54 SLP984 P0000 60010 T10331122 58002

Get Your Daily Forecast Email!

Thanks for signing up!

Be on the lookout for a verification email in your inbox.

You'll start receiving severe weather alerts in your inbox..

×

10-Day Weather Forecast

Almanac

Astronomy

Feb. 19, 2018 Rise Set
Actual Time
Civil Twilight
Nautical Twilight
Astronomical Twilight
Moon
Length of Visible Light
Length of Day
Tomorrow will be .
, % of the Moon is Illuminated

Today's Extremes

State Highs State Lows

Community

WunderPhotos

Category 6

Welcome to Category 6. This is the collective home for Weather Underground's featured writeups by Dr. Jeff Masters (right), Bob Henson (left), Chris Burt, and other regular contributors.

Nearby

Air Quality

  Air Quality AQ Index Pollutant
Not available.

Snow Depth

Station Depth Elevation

Earthquake Activity

City Distance Mag. Time & Date
Minimum magnitude displayed is 2.5.

Coastal Water Temperatures

Place Temperature

Stations

Nearby Weather Stations

Station Location Temp. Windchill Dew Point Humidity Wind Precip. Elev Updated Type
                   

Watches & Warnings

Wind Advisory
Issued: 12:02 PM MST Feb. 19, 2018 – National Weather Service

... Wind Advisory remains in effect until 5 PM MST this
afternoon...

* timing... through late Monday afternoon.

* Winds... southwest winds 20 to 30 mph, with gusts from 45 to 55
mph.

* Impacts... strong winds can make driving difficult, especially
for high profile vehicles. Consider securing loose belongings
on your property.

Precautionary/preparedness actions...

A Wind Advisory means that sustained winds of 30 to 39 mph... or
gusts from 40 to 57 mph are expected.

Additional weather information is on the web at
www.Weather.Gov/Flagstaff.